createdAt,value
2018-09-02T00:00:00.921Z,101073.00
2018-09-02T00:02:29.781Z,101071.86
2018-09-02T00:04:58.911Z,101068.52
2018-09-02T00:07:27.735Z,101066.70
2018-09-02T00:09:56.637Z,101062.58
2018-09-02T00:12:25.449Z,101067.88
2018-09-02T00:14:54.426Z,101067.00
2018-09-02T00:17:23.270Z,101072.34
2018-09-02T00:19:52.065Z,101072.77
2018-09-02T00:22:21.129Z,101077.39
2018-09-02T00:24:50.062Z,101083.09
2018-09-02T00:27:18.853Z,101082.59
2018-09-02T00:29:47.835Z,101074.59
2018-09-02T00:32:16.684Z,101071.78
2018-09-02T00:34:45.486Z,101071.45
2018-09-02T00:37:14.403Z,101071.27
2018-09-02T00:39:43.293Z,101069.41
2018-09-02T00:42:12.096Z,101068.45
2018-09-02T00:44:40.936Z,101070.44
2018-09-02T00:47:09.793Z,101070.19
2018-09-02T00:49:38.588Z,101065.25
2018-09-02T00:52:07.681Z,101064.62
2018-09-02T00:54:36.530Z,101066.29
2018-09-02T00:57:05.428Z,101061.98
2018-09-02T00:59:34.319Z,101067.95
2018-09-02T01:02:03.254Z,101066.97
2018-09-02T01:04:32.081Z,101074.23
2018-09-02T01:07:00.933Z,101070.08
2018-09-02T01:09:29.777Z,101071.13
2018-09-02T01:11:58.567Z,101064.30
2018-09-02T01:14:27.531Z,101064.97
2018-09-02T01:16:56.413Z,101056.02
2018-09-02T01:19:25.305Z,101051.66
2018-09-02T01:21:54.208Z,101064.91
2018-09-02T01:24:23.132Z,101069.39
2018-09-02T01:26:51.922Z,101087.77
2018-09-02T01:29:20.760Z,101078.39
2018-09-02T01:31:49.601Z,101080.83
2018-09-02T01:34:18.394Z,101076.08
2018-09-02T01:36:47.193Z,101085.47
2018-09-02T01:39:16.027Z,101101.45
2018-09-02T01:41:44.876Z,101099.12
2018-09-02T01:44:13.835Z,101106.14
2018-09-02T01:46:42.683Z,101104.03
2018-09-02T01:49:11.500Z,101105.38
2018-09-02T01:51:40.292Z,101109.52
2018-09-02T01:54:09.152Z,101113.27
2018-09-02T01:56:38.011Z,101118.12
2018-09-02T01:59:06.909Z,101140.78
2018-09-02T02:01:37.005Z,101117.64
2018-09-02T02:04:05.804Z,101125.50
2018-09-02T02:06:34.695Z,101113.21
2018-09-02T02:09:04.138Z,101118.78
2018-09-02T02:11:32.996Z,101113.39
2018-09-02T02:14:01.781Z,101122.88
2018-09-02T02:16:30.622Z,101123.80
2018-09-02T02:19:00.691Z,101139.05
2018-09-02T02:21:29.513Z,101134.27
2018-09-02T02:23:58.338Z,101123.11
2018-09-02T02:26:27.200Z,101128.38
2018-09-02T02:28:56.003Z,101120.12
2018-09-02T02:31:24.826Z,101123.77
2018-09-02T02:33:53.982Z,101144.47
2018-09-02T02:36:22.769Z,101131.88
2018-09-02T02:38:51.569Z,101139.41
2018-09-02T02:41:21.741Z,101144.75
2018-09-02T02:43:50.515Z,101139.62
2018-09-02T02:46:19.300Z,101143.98
2018-09-02T02:48:48.293Z,101152.69
2018-09-02T02:51:17.186Z,101142.11
2018-09-02T02:53:46.068Z,101142.31
2018-09-02T02:56:14.880Z,101139.81
2018-09-02T02:58:43.706Z,101138.55
2018-09-02T03:01:12.649Z,101142.99
2018-09-02T03:03:41.489Z,101143.05
2018-09-02T03:06:10.307Z,101152.58
2018-09-02T03:08:39.104Z,101152.05
2018-09-02T03:11:08.034Z,101147.55
2018-09-02T03:13:36.918Z,101151.08
2018-09-02T03:16:06.181Z,101145.57
2018-09-02T03:18:34.994Z,101146.97
2018-09-02T03:21:03.908Z,101151.56
2018-09-02T03:23:32.825Z,101147.69
2018-09-02T03:26:01.704Z,101147.36
2018-09-02T03:28:30.507Z,101159.14
2018-09-02T03:30:59.374Z,101156.14
2018-09-02T03:33:28.176Z,101150.12
2018-09-02T03:35:57.030Z,101150.79
2018-09-02T03:38:25.913Z,101147.96
2018-09-02T03:40:54.768Z,101147.30
2018-09-02T03:43:23.578Z,101147.83
2018-09-02T03:45:53.639Z,101142.30
2018-09-02T03:48:22.477Z,101157.47
2018-09-02T03:50:51.297Z,101153.02
2018-09-02T03:53:21.601Z,101159.34
2018-09-02T03:55:50.442Z,101157.38
2018-09-02T03:58:19.310Z,101157.98
2018-09-02T04:00:48.198Z,101159.50
2018-09-02T04:03:17.083Z,101157.02
2018-09-02T04:05:45.869Z,101151.05
2018-09-02T04:08:14.677Z,101153.70
2018-09-02T04:10:43.550Z,101159.11
2018-09-02T04:13:12.351Z,101159.66
2018-09-02T04:15:41.296Z,101163.56
2018-09-02T04:18:11.421Z,101162.52
2018-09-02T04:20:40.313Z,101155.75
2018-09-02T04:23:10.371Z,101164.36
2018-09-02T04:25:39.247Z,101159.75
2018-09-02T04:28:08.058Z,101167.36
2018-09-02T04:30:36.966Z,101161.92
2018-09-02T04:33:05.774Z,101167.52
2018-09-02T04:35:34.630Z,101166.17
2018-09-02T04:38:04.737Z,101167.78
2018-09-02T04:40:33.617Z,101168.02
2018-09-02T04:43:02.443Z,101170.48
2018-09-02T04:45:31.297Z,101170.80
2018-09-02T04:48:00.124Z,101171.67
2018-09-02T04:50:28.962Z,101172.30
2018-09-02T04:52:59.049Z,101176.67
2018-09-02T04:55:27.852Z,101174.16
2018-09-02T04:57:57.926Z,101173.17
2018-09-02T05:00:26.816Z,101167.81
2018-09-02T05:02:55.741Z,101169.00
2018-09-02T05:05:24.594Z,101162.52
2018-09-02T05:07:53.468Z,101164.42
2018-09-02T05:10:22.323Z,101162.38
2018-09-02T05:12:51.184Z,101169.31
2018-09-02T05:15:20.017Z,101165.50
2018-09-02T05:17:48.928Z,101167.92
2018-09-02T05:20:17.759Z,101165.09
2018-09-02T05:22:47.968Z,101172.36
2018-09-02T05:25:16.798Z,101169.41
2018-09-02T05:27:45.679Z,101168.25
2018-09-02T05:30:14.642Z,101167.09
2018-09-02T05:32:43.525Z,101168.85
2018-09-02T05:35:12.364Z,101168.06
2018-09-02T05:37:42.461Z,101158.44
2018-09-02T05:40:11.419Z,101161.84
2018-09-02T05:42:40.254Z,101161.84
2018-09-02T05:45:09.128Z,101165.92
2018-09-02T05:47:39.168Z,101152.67
2018-09-02T05:50:08.085Z,101156.88
2018-09-02T05:52:37.015Z,101163.51
2018-09-02T05:55:06.405Z,101170.27
2018-09-02T05:57:35.260Z,101173.53
2018-09-02T06:00:04.545Z,101169.39
2018-09-02T06:02:33.341Z,101166.90
2018-09-02T06:05:02.262Z,101171.07
2018-09-02T06:07:32.449Z,101172.55
2018-09-02T06:10:01.241Z,101167.27
2018-09-02T06:12:30.043Z,101165.02
2018-09-02T06:15:00.216Z,101162.55
2018-09-02T06:17:29.151Z,101169.73
2018-09-02T06:19:58.026Z,101174.31
2018-09-02T06:22:26.843Z,101179.70
2018-09-02T06:24:55.805Z,101187.27
2018-09-02T06:27:25.002Z,101175.57
2018-09-02T06:29:55.097Z,101182.28
2018-09-02T06:32:23.924Z,101180.68
2018-09-02T06:34:52.727Z,101179.69
2018-09-02T06:37:21.627Z,101181.98
2018-09-02T06:39:51.736Z,101175.78
2018-09-02T06:42:20.553Z,101174.12
2018-09-02T06:44:50.762Z,101180.69
2018-09-02T06:47:19.553Z,101181.53
2018-09-02T06:49:49.775Z,101180.53
2018-09-02T06:52:18.575Z,101177.84
2018-09-02T06:54:47.429Z,101189.52
2018-09-02T06:57:16.366Z,101182.36
2018-09-02T06:59:45.167Z,101187.34
2018-09-02T07:02:14.013Z,101184.11
2018-09-02T07:04:44.213Z,101182.04
2018-09-02T07:07:13.063Z,101187.50
2018-09-02T07:09:41.918Z,101192.33
2018-09-02T07:12:10.786Z,101195.16
2018-09-02T07:14:39.701Z,101191.72
2018-09-02T07:17:08.502Z,101192.27
2018-09-02T07:19:38.578Z,101191.62
2018-09-02T07:22:07.377Z,101198.65
2018-09-02T07:24:36.262Z,101196.45
2018-09-02T07:27:06.656Z,101194.56
2018-09-02T07:29:35.600Z,101199.13
2018-09-02T07:32:04.413Z,101195.22
2018-09-02T07:34:33.381Z,101192.97
2018-09-02T07:37:02.280Z,101193.92
2018-09-02T07:39:31.123Z,101186.70
2018-09-02T07:42:00.121Z,101180.98
2018-09-02T07:44:31.761Z,101185.25
2018-09-02T07:47:00.557Z,101183.50
2018-09-02T07:49:29.368Z,101188.81
2018-09-02T07:51:58.247Z,101183.65
2018-09-02T07:54:27.085Z,101191.12
2018-09-02T07:56:55.875Z,101190.89
2018-09-02T07:59:24.825Z,101173.56
2018-09-02T08:01:53.691Z,101176.81
2018-09-02T08:04:22.503Z,101177.73
2018-09-02T08:06:51.386Z,101164.80
2018-09-02T08:09:20.244Z,101179.30
2018-09-02T08:11:49.097Z,101168.81
2018-09-02T08:14:17.953Z,101181.89
2018-09-02T08:16:46.788Z,101174.69
2018-09-02T08:19:15.639Z,101162.16
2018-09-02T08:21:45.387Z,101170.16
2018-09-02T08:24:14.229Z,101158.16
2018-09-02T08:26:44.427Z,101156.80
2018-09-02T08:29:13.187Z,101152.02
2018-09-02T08:31:41.998Z,101161.08
2018-09-02T08:34:10.872Z,101150.22
2018-09-02T08:36:39.662Z,101145.64
2018-09-02T08:39:10.467Z,101132.66
2018-09-02T08:41:39.865Z,101148.63
2018-09-02T08:44:08.772Z,101148.74
2018-09-02T08:46:40.460Z,101124.56
2018-09-02T08:49:09.402Z,101148.06
2018-09-02T08:51:39.641Z,101139.72
2018-09-02T08:54:08.476Z,101145.90
2018-09-02T08:56:37.310Z,101153.77
2018-09-02T08:59:07.560Z,101154.77
2018-09-02T09:01:36.470Z,101137.43
2018-09-02T09:04:05.267Z,101147.18
2018-09-02T09:06:34.141Z,101135.69
2018-09-02T09:09:03.273Z,101142.30
2018-09-02T09:11:31.901Z,101145.90
2018-09-02T09:14:00.799Z,101140.97
2018-09-02T09:16:29.769Z,101143.09
2018-09-02T09:18:58.601Z,101149.06
2018-09-02T09:21:27.482Z,101141.80
2018-09-02T09:23:56.331Z,101140.03
2018-09-02T09:26:25.197Z,101146.67
2018-09-02T09:28:54.025Z,101136.52
2018-09-02T09:31:22.882Z,101136.24
2018-09-02T09:33:52.196Z,101145.23
2018-09-02T09:36:21.020Z,101145.39
2018-09-02T09:38:49.840Z,101148.28
2018-09-02T09:41:18.716Z,101153.03
2018-09-02T09:43:48.913Z,101157.72
2018-09-02T09:46:17.793Z,101149.89
2018-09-02T09:48:46.670Z,101146.80
2018-09-02T09:51:15.572Z,101151.93
2018-09-02T09:53:44.446Z,101146.95
2018-09-02T09:56:13.358Z,101150.77
2018-09-02T09:58:43.449Z,101148.84
2018-09-02T10:01:12.367Z,101149.17
2018-09-02T10:03:41.188Z,101147.91
2018-09-02T10:06:11.348Z,101145.59
2018-09-02T10:08:40.157Z,101146.25
2018-09-02T10:11:09.052Z,101147.16
2018-09-02T10:13:39.211Z,101152.91
2018-09-02T10:16:09.374Z,101150.41
2018-09-02T10:18:38.320Z,101148.31
2018-09-02T10:21:08.592Z,101152.73
2018-09-02T10:23:37.389Z,101152.27
2018-09-02T10:26:06.393Z,101141.05
2018-09-02T10:28:35.289Z,101143.41
2018-09-02T10:31:04.149Z,101143.05
2018-09-02T10:33:32.993Z,101145.50
2018-09-02T10:36:03.176Z,101146.16
2018-09-02T10:38:32.100Z,101142.90
2018-09-02T10:41:01.121Z,101141.42
2018-09-02T10:43:29.918Z,101136.31
2018-09-02T10:45:58.716Z,101140.03
2018-09-02T10:48:27.571Z,101136.19
2018-09-02T10:50:57.743Z,101138.48
2018-09-02T10:53:26.613Z,101135.85
2018-09-02T10:55:55.468Z,101133.48
2018-09-02T10:58:24.356Z,101139.32
2018-09-02T11:00:53.213Z,101144.01
2018-09-02T11:03:22.040Z,101141.13
2018-09-02T11:05:50.941Z,101136.95
2018-09-02T11:08:20.992Z,101133.64
2018-09-02T11:10:49.842Z,101132.19
2018-09-02T11:13:18.683Z,101135.61
2018-09-02T11:15:49.332Z,101127.52
2018-09-02T11:18:18.238Z,101133.80
2018-09-02T11:20:47.172Z,101127.73
2018-09-02T11:23:17.236Z,101125.22
2018-09-02T11:25:46.138Z,101122.42
2018-09-02T11:28:14.914Z,101116.53
2018-09-02T11:30:43.796Z,101128.18
2018-09-02T11:33:12.807Z,101127.95
2018-09-02T11:35:41.617Z,101119.75
2018-09-02T11:38:10.545Z,101119.02
2018-09-02T11:40:39.388Z,101130.92
2018-09-02T11:43:08.243Z,101122.40
2018-09-02T11:45:37.069Z,101122.89
2018-09-02T11:48:10.173Z,101126.48
2018-09-02T11:50:40.450Z,101119.72
2018-09-02T11:53:09.331Z,101125.22
2018-09-02T11:55:39.601Z,101120.53
2018-09-02T11:58:08.434Z,101120.47
2018-09-02T12:00:37.384Z,101116.86
2018-09-02T12:03:06.244Z,101113.44
2018-09-02T12:05:35.220Z,101122.77
2018-09-02T12:08:04.008Z,101114.61
2018-09-02T12:10:32.778Z,101110.69
2018-09-02T12:13:02.982Z,101106.28
2018-09-02T12:15:31.913Z,101109.47
2018-09-02T12:18:00.960Z,101104.59
2018-09-02T12:20:31.195Z,101107.14
2018-09-02T12:23:00.042Z,101110.69
2018-09-02T12:25:28.876Z,101080.22
2018-09-02T12:27:59.164Z,101101.58
2018-09-02T12:30:27.988Z,101105.09
2018-09-02T12:32:56.847Z,101108.32
2018-09-02T12:35:27.030Z,101104.66
2018-09-02T12:37:55.864Z,101092.59
2018-09-02T12:40:24.685Z,101093.67
2018-09-02T12:42:54.936Z,101094.40
2018-09-02T12:45:23.870Z,101089.34
2018-09-02T12:47:52.840Z,101087.23
2018-09-02T12:50:21.530Z,101086.27
2018-09-02T12:52:51.852Z,101076.63
2018-09-02T12:55:20.934Z,101073.02
2018-09-02T12:57:49.802Z,101074.41
2018-09-02T13:00:18.648Z,101082.80
2018-09-02T13:02:47.542Z,101082.07
2018-09-02T13:05:16.483Z,101084.92
2018-09-02T13:07:45.329Z,101078.84
2018-09-02T13:10:14.211Z,101078.97
2018-09-02T13:12:43.122Z,101069.62
2018-09-02T13:15:11.983Z,101079.16
2018-09-02T13:17:40.813Z,101082.02
2018-09-02T13:20:09.697Z,101080.93
2018-09-02T13:22:38.500Z,101079.05
2018-09-02T13:25:07.411Z,101087.64
2018-09-02T13:27:36.329Z,101084.81
2018-09-02T13:30:06.250Z,101086.41
2018-09-02T13:32:35.107Z,101087.02
2018-09-02T13:35:04.000Z,101088.25
2018-09-02T13:37:32.782Z,101082.22
2018-09-02T13:40:01.689Z,101089.98
2018-09-02T13:42:30.669Z,101088.89
2018-09-02T13:44:59.537Z,101076.66
2018-09-02T13:47:28.426Z,101090.31
2018-09-02T13:49:58.746Z,101084.73
2018-09-02T13:52:27.576Z,101082.92
2018-09-02T13:54:57.782Z,101086.83
2018-09-02T13:57:26.695Z,101096.08
2018-09-02T13:59:55.510Z,101099.26
2018-09-02T14:02:24.326Z,101088.34
2018-09-02T14:04:55.453Z,101100.30
2018-09-02T14:07:24.430Z,101093.47
2018-09-02T14:09:53.350Z,101094.23
2018-09-02T14:12:22.394Z,101091.33
2018-09-02T14:14:51.797Z,101094.47
2018-09-02T14:17:20.710Z,101101.45
2018-09-02T14:19:49.758Z,101095.29
2018-09-02T14:22:18.589Z,101097.91
2018-09-02T14:24:47.516Z,101097.98
2018-09-02T14:27:16.358Z,101096.28
2018-09-02T14:29:45.272Z,101096.41
2018-09-02T14:32:14.165Z,101094.50
2018-09-02T14:34:43.034Z,101094.94
2018-09-02T14:37:13.138Z,101100.46
2018-09-02T14:39:42.028Z,101090.80
2018-09-02T14:42:10.853Z,101092.60
2018-09-02T14:44:41.005Z,101099.34
2018-09-02T14:47:09.868Z,101093.95
2018-09-02T14:49:40.033Z,101097.61
2018-09-02T14:52:08.876Z,101098.13
2018-09-02T14:54:37.729Z,101101.66
2018-09-02T14:57:09.116Z,101101.31
2018-09-02T14:59:37.967Z,101093.42
2018-09-02T15:02:06.988Z,101097.77
2018-09-02T15:04:35.846Z,101092.48
2018-09-02T15:07:04.673Z,101096.84
2018-09-02T15:09:33.532Z,101091.53
2018-09-02T15:12:02.460Z,101090.03
2018-09-02T15:14:31.307Z,101087.87
2018-09-02T15:17:00.195Z,101097.14
2018-09-02T15:19:29.058Z,101096.79
2018-09-02T15:21:57.922Z,101101.33
2018-09-02T15:24:26.765Z,101098.27
2018-09-02T15:26:55.640Z,101089.41
2018-09-02T15:29:24.493Z,101095.75
2018-09-02T15:31:53.389Z,101096.77
2018-09-02T15:34:22.318Z,101092.92
2018-09-02T15:36:51.210Z,101092.56
2018-09-02T15:39:20.061Z,101093.41
2018-09-02T15:41:48.935Z,101096.23
2018-09-02T15:44:17.889Z,101087.71
2018-09-02T15:46:46.794Z,101084.11
2018-09-02T15:49:15.630Z,101090.86
2018-09-02T15:51:44.472Z,101089.65
2018-09-02T15:54:14.581Z,101092.81
2018-09-02T15:56:43.415Z,101089.27
2018-09-02T15:59:13.720Z,101082.73
2018-09-02T16:01:42.575Z,101087.11
2018-09-02T16:04:11.601Z,101084.94
2018-09-02T16:06:40.466Z,101083.67
2018-09-02T16:09:11.073Z,101084.44
2018-09-02T16:11:40.137Z,101080.66
2018-09-02T16:14:09.480Z,101087.62
2018-09-02T16:16:39.889Z,101081.97
2018-09-02T16:19:08.816Z,101080.82
2018-09-02T16:21:37.661Z,101088.91
2018-09-02T16:24:06.662Z,101088.16
2018-09-02T16:26:35.564Z,101085.75
2018-09-02T16:29:04.446Z,101086.70
2018-09-02T16:31:33.405Z,101090.55
2018-09-02T16:34:02.231Z,101086.37
2018-09-02T16:36:31.061Z,101089.32
2018-09-02T16:39:01.317Z,101089.78
2018-09-02T16:41:30.226Z,101092.52
2018-09-02T16:43:59.084Z,101092.89
2018-09-02T16:46:27.903Z,101099.10
2018-09-02T16:48:56.913Z,101094.58
2018-09-02T16:51:25.955Z,101089.90
2018-09-02T16:54:21.585Z,101090.48
2018-09-02T16:56:57.578Z,101094.54
2018-09-02T16:59:47.166Z,101089.59
2018-09-02T17:02:29.527Z,101091.99
2018-09-02T17:05:10.745Z,101086.72
2018-09-02T17:07:44.455Z,101099.91
2018-09-02T17:13:03.039Z,101098.81
2018-09-02T17:15:35.927Z,101098.76
2018-09-02T17:18:13.706Z,101104.96
2018-09-02T17:20:50.865Z,101105.52
2018-09-02T17:23:27.114Z,101101.02
2018-09-02T17:25:59.683Z,101110.02
2018-09-02T17:28:42.117Z,101107.45
2018-09-02T17:31:16.406Z,101108.11
2018-09-02T17:33:51.834Z,101111.94
2018-09-02T17:36:30.118Z,101110.66
2018-09-02T17:39:04.816Z,101115.94
2018-09-02T17:41:45.666Z,101113.98
2018-09-02T17:44:22.640Z,101116.81
2018-09-02T17:46:57.711Z,101118.98
2018-09-02T17:52:55.316Z,101130.64
2018-09-02T17:55:28.663Z,101139.03
2018-09-02T17:58:08.502Z,101139.64
2018-09-02T18:00:51.071Z,101136.32
2018-09-02T18:03:27.555Z,101136.16
2018-09-02T18:06:09.695Z,101139.86
2018-09-02T18:08:51.382Z,101140.52
2018-09-02T18:11:39.536Z,101130.27
2018-09-02T18:14:20.442Z,101131.84
2018-09-02T18:16:57.561Z,101126.48
2018-09-02T18:19:38.458Z,101133.38
2018-09-02T18:22:17.354Z,101127.58
2018-09-02T18:24:52.975Z,101128.86
2018-09-02T18:27:33.494Z,101129.18
2018-09-02T18:33:06.085Z,101128.20
2018-09-02T18:35:46.687Z,101128.87
2018-09-02T18:38:20.295Z,101129.48
2018-09-02T18:40:52.115Z,101129.03
2018-09-02T18:43:28.947Z,101136.51
2018-09-02T18:46:11.579Z,101133.47
2018-09-02T18:48:53.603Z,101133.80
2018-09-02T18:51:32.527Z,101133.23
2018-09-02T18:56:58.801Z,101132.45
2018-09-02T18:59:47.732Z,101132.34
2018-09-02T19:02:27.633Z,101125.98
2018-09-02T19:05:12.842Z,101131.77
2018-09-02T19:07:53.412Z,101130.11
2018-09-02T19:10:46.458Z,101125.95
2018-09-02T19:13:19.564Z,101123.10
2018-09-02T19:18:49.395Z,101127.09
2018-09-02T19:24:13.485Z,101120.44
2018-09-02T19:26:53.005Z,101123.06
2018-09-02T19:29:40.036Z,101132.33
2018-09-02T19:32:15.915Z,101130.95
2018-09-02T19:34:57.411Z,101133.94
2018-09-02T19:37:39.780Z,101134.70
2018-09-02T19:40:19.983Z,101137.06
2018-09-02T19:43:00.330Z,101124.86
2018-09-02T19:45:42.052Z,101132.03
2018-09-02T19:48:26.585Z,101140.45
2018-09-02T19:51:06.269Z,101136.59
2018-09-02T19:53:48.727Z,101134.31
2018-09-02T19:56:32.584Z,101132.65
2018-09-02T19:59:07.798Z,101133.16
2018-09-02T20:07:39.904Z,101128.47
2018-09-02T20:10:18.788Z,101117.72
2018-09-02T20:13:02.430Z,101124.83
2018-09-02T20:18:30.570Z,101119.34
2018-09-02T20:21:14.578Z,101102.11
2018-09-02T20:24:00.263Z,101123.16
2018-09-02T20:26:39.391Z,101119.69
2018-09-02T20:32:55.752Z,101108.85
2018-09-02T20:35:45.145Z,101117.67
2018-09-02T20:38:30.330Z,101106.73
2018-09-02T20:41:10.044Z,101096.09
2018-09-02T20:43:52.395Z,101096.44
2018-09-02T20:46:38.529Z,101088.95
2018-09-02T20:49:21.820Z,101077.19
2018-09-02T20:52:03.269Z,101074.72
2018-09-02T20:54:45.240Z,101069.24
2018-09-02T20:57:24.181Z,101056.20
2018-09-02T21:00:11.969Z,101066.59
2018-09-02T21:02:46.045Z,101060.69
2018-09-02T21:05:22.314Z,101062.42
2018-09-02T21:08:04.404Z,101065.59
2018-09-02T21:10:50.493Z,101071.02
2018-09-02T21:13:32.334Z,101070.68
2018-09-02T21:16:12.260Z,101066.05
2018-09-02T21:18:53.561Z,101064.20
2018-09-02T21:21:38.641Z,101059.11
2018-09-02T21:24:42.347Z,101059.47
2018-09-02T21:27:25.337Z,101056.25
2018-09-02T21:30:05.247Z,101056.44
2018-09-02T21:32:52.739Z,101062.89
2018-09-02T21:35:34.603Z,101067.83
2018-09-02T21:38:20.652Z,101065.85
2018-09-02T21:41:09.311Z,101063.19
2018-09-02T21:47:02.412Z,101051.45
2018-09-02T21:50:00.689Z,101045.12
2018-09-02T21:52:35.445Z,101042.75
2018-09-02T21:55:15.125Z,101036.23
2018-09-02T21:58:05.123Z,101041.45
2018-09-02T22:00:55.631Z,101038.27
2018-09-02T22:03:36.309Z,101039.06
2018-09-02T22:06:20.061Z,101037.95
2018-09-02T22:08:57.652Z,101042.42
2018-09-02T22:11:35.004Z,101039.45
2018-09-02T22:14:21.410Z,101034.95
2018-09-02T22:17:02.861Z,101030.67
2018-09-02T22:19:40.429Z,101036.90
2018-09-02T22:22:17.559Z,101025.06
2018-09-02T22:25:05.303Z,101020.66
2018-09-02T22:30:47.365Z,101019.01
2018-09-02T22:33:25.315Z,101014.02
2018-09-02T22:36:04.451Z,101016.13
2018-09-02T22:38:42.110Z,101011.38
2018-09-02T22:41:19.023Z,101017.11
2018-09-02T22:44:12.196Z,101022.27
2018-09-02T22:47:02.103Z,101025.59
2018-09-02T22:49:42.663Z,101018.18
2018-09-02T22:52:24.815Z,101009.73
2018-09-02T22:55:11.581Z,101011.55
2018-09-02T22:57:57.212Z,101005.87
2018-09-02T23:00:48.719Z,101005.69
2018-09-02T23:03:37.654Z,101002.56
2018-09-02T23:06:17.576Z,100981.34
2018-09-02T23:08:56.687Z,100999.90
2018-09-02T23:11:38.016Z,101004.75
2018-09-02T23:14:22.252Z,101003.58
2018-09-02T23:17:02.743Z,101005.09
2018-09-02T23:19:37.112Z,100997.50
2018-09-02T23:22:18.724Z,100998.16
2018-09-02T23:25:10.919Z,100992.06
2018-09-02T23:31:00.929Z,100989.44
2018-09-02T23:34:02.553Z,100988.95
2018-09-02T23:36:47.229Z,100992.50
2018-09-02T23:39:28.412Z,100985.20
2018-09-02T23:44:56.202Z,100986.19
2018-09-02T23:47:46.770Z,100987.82
2018-09-02T23:50:19.860Z,100981.86
2018-09-02T23:53:02.579Z,100988.19
2018-09-02T23:55:43.030Z,100990.25
2018-09-02T23:58:34.355Z,100985.30
